createdAt,value
2018-11-05T00:00:42.403Z,7.80
2018-11-05T00:05:46.442Z,8.40
2018-11-05T00:10:50.432Z,8.10
2018-11-05T00:15:53.864Z,9.00
2018-11-05T00:20:57.382Z,10.23
2018-11-05T00:26:01.307Z,8.87
2018-11-05T00:31:05.039Z,8.03
2018-11-05T00:36:08.380Z,9.13
2018-11-05T00:41:11.651Z,7.10
2018-11-05T00:46:15.608Z,10.55
2018-11-05T00:51:20.462Z,8.93
2018-11-05T00:56:24.960Z,8.27
2018-11-05T01:01:29.655Z,10.67
2018-11-05T01:06:33.181Z,8.40
2018-11-05T01:11:37.261Z,9.10
2018-11-05T01:16:41.072Z,8.37
2018-11-05T01:21:44.588Z,9.00
2018-11-05T01:26:48.261Z,9.60
2018-11-05T01:31:52.739Z,9.20
2018-11-05T01:36:56.148Z,8.17
2018-11-05T01:42:00.108Z,9.95
2018-11-05T01:47:03.521Z,8.88
2018-11-05T01:52:07.595Z,8.90
2018-11-05T01:57:10.890Z,11.18
2018-11-05T02:02:14.839Z,8.78
2018-11-05T02:07:18.165Z,8.63
2018-11-05T02:12:21.682Z,9.35
2018-11-05T02:17:25.069Z,7.85
2018-11-05T02:22:28.694Z,10.50
2018-11-05T02:27:32.133Z,8.83
2018-11-05T02:32:35.436Z,10.13
2018-11-05T02:37:38.860Z,9.73
2018-11-05T02:42:42.785Z,10.27
2018-11-05T02:47:46.066Z,10.08
2018-11-05T02:52:49.364Z,8.50
2018-11-05T02:57:52.636Z,8.25
2018-11-05T03:02:55.950Z,7.90
2018-11-05T03:07:59.209Z,8.18
2018-11-05T03:13:02.503Z,7.27
2018-11-05T03:18:05.783Z,7.75
2018-11-05T03:23:09.061Z,9.37
2018-11-05T03:28:12.338Z,8.77
2018-11-05T03:33:15.613Z,9.20
2018-11-05T03:38:18.894Z,7.90
2018-11-05T03:43:22.169Z,10.75
2018-11-05T03:48:25.440Z,8.50
2018-11-05T03:53:28.722Z,8.63
2018-11-05T03:58:32.005Z,9.10
2018-11-05T04:03:35.363Z,8.33
2018-11-05T04:08:38.585Z,7.67
2018-11-05T04:13:41.849Z,8.77
2018-11-05T04:18:45.122Z,7.30
2018-11-05T04:23:48.405Z,10.77
2018-11-05T04:28:51.670Z,8.07
2018-11-05T04:33:54.970Z,7.75
2018-11-05T04:38:58.253Z,8.53
2018-11-05T04:44:01.518Z,7.47
2018-11-05T04:49:04.944Z,9.03
2018-11-05T04:54:08.258Z,7.33
2018-11-05T04:59:11.633Z,8.68
2018-11-05T05:04:14.908Z,9.83
2018-11-05T05:09:18.225Z,10.07
2018-11-05T05:14:21.531Z,9.77
2018-11-05T05:19:24.829Z,7.90
2018-11-05T05:24:28.121Z,9.40
2018-11-05T05:29:31.506Z,10.27
2018-11-05T05:34:34.853Z,8.65
2018-11-05T05:39:38.158Z,11.60
2018-11-05T05:44:41.456Z,9.10
2018-11-05T05:49:44.746Z,6.53
2018-11-05T05:54:48.042Z,8.13
2018-11-05T05:59:51.382Z,8.13
2018-11-05T06:04:54.685Z,7.10
2018-11-05T06:09:57.977Z,12.63
2018-11-05T06:15:01.270Z,7.30
2018-11-05T06:20:06.178Z,6.50
2018-11-05T06:25:09.497Z,9.70
2018-11-05T06:30:15.485Z,7.87
2018-11-05T06:35:19.160Z,7.20
2018-11-05T06:40:22.438Z,8.40
2018-11-05T06:45:25.799Z,8.05
2018-11-05T06:50:29.052Z,7.20
2018-11-05T06:55:32.345Z,8.28
2018-11-05T07:00:35.638Z,7.50
2018-11-05T07:05:39.023Z,10.75
2018-11-05T07:10:42.269Z,7.70
2018-11-05T07:15:45.572Z,7.83
2018-11-05T07:20:48.957Z,7.13
2018-11-05T07:25:52.264Z,8.13
2018-11-05T07:30:55.566Z,7.40
2018-11-05T07:35:58.853Z,7.33
2018-11-05T07:41:02.153Z,14.77
2018-11-05T07:46:05.905Z,21.73
2018-11-05T07:51:09.211Z,24.10
2018-11-05T07:56:12.612Z,23.80
2018-11-05T08:01:15.906Z,26.45
2018-11-05T08:06:19.205Z,24.67
2018-11-05T08:11:22.505Z,26.77
2018-11-05T08:16:25.853Z,26.27
2018-11-05T08:21:29.125Z,27.03
2018-11-05T08:26:32.414Z,22.27
2018-11-05T08:31:35.693Z,22.87
2018-11-05T08:36:38.977Z,20.03
2018-11-05T08:41:42.251Z,19.93
2018-11-05T08:46:45.559Z,19.07
2018-11-05T08:51:49.099Z,20.27
2018-11-05T08:56:52.178Z,19.70
2018-11-05T09:01:55.460Z,17.47
2018-11-05T09:06:58.750Z,17.23
2018-11-05T09:12:02.091Z,16.27
2018-11-05T09:17:05.930Z,25.37
2018-11-05T09:22:09.213Z,26.23
2018-11-05T09:27:12.521Z,26.40
2018-11-05T09:32:15.891Z,27.80
2018-11-05T09:37:19.174Z,26.30
2018-11-05T09:42:22.461Z,26.03
2018-11-05T09:47:25.751Z,30.63
2018-11-05T09:52:29.080Z,27.23
2018-11-05T09:57:32.387Z,27.33
2018-11-05T10:02:41.259Z,25.13
2018-11-05T10:07:45.029Z,26.40
2018-11-05T10:12:48.341Z,26.00
2018-11-05T10:17:51.641Z,28.40
2018-11-05T10:22:54.942Z,24.00
2018-11-05T10:28:02.175Z,21.17
2018-11-05T10:33:05.581Z,19.67
2018-11-05T10:38:08.844Z,19.07
2018-11-05T10:43:12.156Z,20.50
2018-11-05T10:48:15.457Z,17.53
2018-11-05T10:53:18.766Z,16.23
2018-11-05T10:58:22.151Z,22.53
2018-11-05T11:03:29.575Z,18.50
2018-11-05T11:08:32.893Z,23.30
2018-11-05T11:13:36.189Z,18.97
2018-11-05T11:18:39.501Z,18.13
2018-11-05T11:23:42.810Z,17.33
2018-11-05T11:28:46.301Z,21.90
2018-11-05T11:33:49.433Z,17.63
2018-11-05T11:38:52.742Z,20.40
2018-11-05T11:43:56.059Z,18.70
2018-11-05T11:48:59.373Z,14.87
2018-11-05T11:54:02.863Z,21.40
2018-11-05T11:59:06.177Z,15.90
2018-11-05T12:04:09.509Z,18.50
2018-11-05T12:09:12.809Z,16.27
2018-11-05T12:14:16.175Z,13.50
2018-11-05T12:19:19.468Z,18.93
2018-11-05T12:24:22.824Z,18.63
2018-11-05T12:29:26.105Z,16.30
2018-11-05T12:34:29.409Z,15.78
2018-11-05T12:39:32.727Z,16.43
2018-11-05T12:44:36.108Z,17.35
2018-11-05T12:49:39.338Z,14.97
2018-11-05T12:54:42.622Z,16.73
2018-11-05T12:59:45.909Z,16.45
2018-11-05T13:04:49.181Z,16.20
2018-11-05T13:09:52.457Z,18.77
2018-11-05T13:14:55.739Z,19.12
2018-11-05T13:19:59.030Z,12.93
2018-11-05T13:25:02.552Z,13.53
2018-11-05T13:30:07.366Z,16.90
2018-11-05T13:35:12.324Z,20.26
2018-11-05T13:40:17.881Z,20.77
2018-11-05T13:45:21.602Z,22.10
2018-11-05T13:50:25.244Z,15.50
2018-11-05T13:55:28.950Z,14.57
2018-11-05T14:00:32.230Z,18.48
2018-11-05T14:05:35.559Z,19.92
2018-11-05T14:10:38.820Z,13.83
2018-11-05T14:15:42.102Z,16.93
2018-11-05T14:20:45.378Z,15.90
2018-11-05T14:25:48.854Z,13.50
2018-11-05T14:30:52.002Z,17.07
2018-11-05T14:35:55.315Z,17.10
2018-11-05T14:40:58.593Z,14.65
2018-11-05T14:46:01.920Z,11.90
2018-11-05T14:51:05.451Z,15.32
2018-11-05T14:56:08.742Z,19.70
2018-11-05T15:01:12.025Z,14.50
2018-11-05T15:06:15.302Z,14.90
2018-11-05T15:11:18.578Z,16.50
2018-11-05T15:16:21.859Z,18.87
2018-11-05T15:21:25.218Z,12.47
2018-11-05T15:26:28.470Z,14.07
2018-11-05T15:31:31.769Z,17.07
2018-11-05T15:36:35.090Z,16.10
2018-11-05T15:41:38.380Z,19.83
2018-11-05T15:46:41.680Z,17.65
2018-11-05T15:51:45.253Z,16.73
2018-11-05T15:56:48.313Z,21.67
2018-11-05T16:01:51.598Z,16.30
2018-11-05T16:06:54.902Z,18.57
2018-11-05T16:11:58.547Z,15.17
2018-11-05T16:17:01.948Z,16.32
2018-11-05T16:22:05.426Z,20.23
2018-11-05T16:27:08.734Z,14.30
2018-11-05T16:32:12.136Z,21.03
2018-11-05T16:37:15.401Z,18.00
2018-11-05T16:42:18.681Z,20.10
2018-11-05T16:47:21.989Z,15.80
2018-11-05T16:52:25.267Z,12.57
2018-11-05T16:57:28.615Z,13.77
2018-11-05T17:02:32.009Z,15.70
2018-11-05T17:07:35.151Z,16.20
2018-11-05T17:12:38.425Z,13.33
2018-11-05T17:17:42.301Z,16.10
2018-11-05T17:22:45.923Z,14.47
2018-11-05T17:27:49.209Z,16.87
2018-11-05T17:32:52.685Z,13.53
2018-11-05T17:37:56.007Z,16.23
2018-11-05T17:42:59.306Z,15.30
2018-11-05T17:48:02.593Z,12.00
2018-11-05T17:53:06.082Z,15.37
2018-11-05T17:58:09.473Z,11.47
2018-11-05T18:03:12.785Z,13.90
2018-11-05T18:08:16.093Z,15.30
2018-11-05T18:13:19.389Z,15.37
2018-11-05T18:18:22.683Z,14.40
2018-11-05T18:23:26.006Z,14.07
2018-11-05T18:28:29.467Z,14.03
2018-11-05T18:33:32.780Z,13.53
2018-11-05T18:38:36.309Z,11.93
2018-11-05T18:43:39.917Z,13.22
2018-11-05T18:48:43.389Z,12.98
2018-11-05T18:53:46.717Z,13.17
2018-11-05T18:58:50.037Z,13.20
2018-11-05T19:03:53.399Z,11.90
2018-11-05T19:08:56.705Z,11.63
2018-11-05T19:14:00.028Z,10.55
2018-11-05T19:19:03.355Z,13.22
2018-11-05T19:24:06.756Z,12.17
2018-11-05T19:29:10.327Z,11.55
2018-11-05T19:34:13.623Z,11.20
2018-11-05T19:39:16.923Z,11.50
2018-11-05T19:44:20.289Z,10.33
2018-11-05T19:49:23.574Z,10.68
2018-11-05T19:54:26.846Z,12.97
2018-11-05T19:59:30.153Z,12.15
2018-11-05T20:04:33.664Z,13.63
2018-11-05T20:09:36.925Z,11.33
2018-11-05T20:14:40.278Z,12.15
2018-11-05T20:19:43.553Z,13.40
2018-11-05T20:24:46.826Z,12.67
2018-11-05T20:29:50.113Z,12.65
2018-11-05T20:34:53.396Z,14.63
2018-11-05T20:39:56.798Z,11.70
2018-11-05T20:44:59.998Z,13.83
2018-11-05T20:50:03.345Z,14.10
2018-11-05T20:55:07.225Z,14.07
2018-11-05T21:00:12.386Z,12.73
2018-11-05T21:05:15.746Z,12.30
2018-11-05T21:10:19.017Z,13.67
2018-11-05T21:15:23.033Z,11.80
2018-11-05T21:20:26.310Z,14.75
2018-11-05T21:25:29.594Z,11.33
2018-11-05T21:30:32.875Z,11.67
2018-11-05T21:35:36.141Z,10.85
2018-11-05T21:40:39.433Z,12.43
2018-11-05T21:45:42.779Z,11.33
2018-11-05T21:50:46.041Z,11.43
2018-11-05T21:55:49.332Z,11.20
2018-11-05T22:00:52.608Z,10.20
2018-11-05T22:05:55.876Z,10.58
2018-11-05T22:10:59.157Z,9.58
2018-11-05T22:16:02.424Z,9.83
2018-11-05T22:21:05.873Z,10.30
2018-11-05T22:26:09.140Z,9.18
2018-11-05T22:31:12.414Z,9.60
2018-11-05T22:36:15.684Z,9.68
2018-11-05T22:41:19.007Z,9.97
2018-11-05T22:46:22.265Z,10.30
2018-11-05T22:51:25.569Z,9.40
2018-11-05T22:56:28.880Z,10.58
2018-11-05T23:01:37.389Z,9.08
2018-11-05T23:06:40.665Z,10.05
2018-11-05T23:11:43.948Z,7.83
2018-11-05T23:16:47.223Z,9.90
2018-11-05T23:21:50.496Z,9.40
2018-11-05T23:26:53.773Z,8.17
2018-11-05T23:31:57.047Z,9.48
2018-11-05T23:37:00.325Z,9.20
2018-11-05T23:42:03.607Z,9.87
2018-11-05T23:47:06.893Z,10.58
2018-11-05T23:52:10.223Z,8.77
2018-11-05T23:57:13.469Z,9.87
